Time;durP1;ratioP1;P1;durP2;ratioP2;P2;SDS_P1;SDS_P2;PMS_P1;PMS_P2;Temp;Humidity;BMP_temperature;BMP_pressure;BME280_temperature;BME280_humidity;BME280_pressure;Samples;Min_cycle;Max_cycle;Signal;HPM_P1;HPM_P2
2021/04/06 00:00:08;;;;;;;20.40;2.92;;;;;;;5.42;60.47;101562.44;5047031;28;20104;-87
2021/04/06 00:02:37;;;;;;;13.35;2.95;;;;;;;5.60;60.55;101590.72;5037708;28;20476;-89
2021/04/06 00:05:08;;;;;;;18.58;2.75;;;;;;;5.60;59.65;101562.69;5044819;28;20032;-89
2021/04/06 00:07:36;;;;;;;18.55;3.85;;;;;;;5.49;59.81;101573.06;5042460;28;20017;-92
2021/04/06 00:10:13;;;;;;;19.33;2.60;;;;;;;5.70;59.47;101560.19;5041324;28;20025;-92
2021/04/06 00:12:41;;;;;;;17.33;2.75;;;;;;;5.57;59.55;101567.91;5043331;28;20121;-93
2021/04/06 00:15:11;;;;;;;18.08;2.63;;;;;;;5.52;59.39;101559.09;5039241;28;20028;-93
2021/04/06 00:17:43;;;;;;;10.63;2.90;;;;;;;5.78;58.34;101564.66;5040619;28;20032;-92
2021/04/06 00:20:10;;;;;;;15.57;2.20;;;;;;;5.69;58.11;101564.53;5042717;28;20472;-91
2021/04/06 00:22:37;;;;;;;18.48;2.67;;;;;;;5.60;58.24;101564.44;5042948;28;20018;-93
2021/04/06 00:25:07;;;;;;;12.38;2.65;;;;;;;5.61;57.54;101555.69;5046473;28;20022;-91
2021/04/06 00:27:41;;;;;;;12.95;2.28;;;;;;;5.78;57.27;101577.81;5039141;28;20084;-92
2021/04/06 00:30:18;;;;;;;11.45;2.38;;;;;;;5.16;58.64;101590.16;5037995;28;20384;-93
2021/04/06 00:32:45;;;;;;;12.98;2.25;;;;;;;5.27;59.78;101613.06;5034256;28;20439;-92
2021/04/06 00:35:13;;;;;;;8.98;1.75;;;;;;;5.08;61.37;101615.41;5027317;28;20033;-91
2021/04/06 00:37:47;;;;;;;12.20;1.77;;;;;;;5.06;62.56;101627.66;5030212;28;20030;-90
2021/04/06 00:40:17;;;;;;;7.43;2.03;;;;;;;5.07;62.05;101599.63;5031137;28;20148;-90
2021/04/06 00:42:44;;;;;;;8.15;1.25;;;;;;;5.05;61.58;101591.72;5023836;28;20030;-90
2021/04/06 00:48:04;;;;;;;15.00;2.10;;;;;;;4.98;61.77;101600.38;5031431;28;20460;-90
2021/04/06 00:50:33;;;;;;;11.82;1.70;;;;;;;4.93;62.21;101596.81;5005355;28;20066;-91
2021/04/06 00:53:00;;;;;;;10.95;2.05;;;;;;;5.01;61.75;101590.81;5008119;28;20546;-92
2021/04/06 00:55:36;;;;;;;12.00;2.50;;;;;;;5.15;60.85;101593.63;5029417;28;20356;-90
2021/04/06 00:58:14;;;;;;;8.10;2.17;;;;;;;5.23;60.87;101590.22;5055515;28;20143;-91
2021/04/06 01:00:42;;;;;;;15.05;2.25;;;;;;;5.03;61.09;101585.56;5069644;28;20153;-91
2021/04/06 01:03:13;;;;;;;12.60;1.83;;;;;;;5.07;60.53;101586.50;4983220;28;20106;-92
2021/04/06 01:08:41;;;;;;;16.17;2.50;;;;;;;5.06;60.53;101577.75;5131093;27;20373;-91
2021/04/06 01:11:09;;;;;;;19.98;3.05;;;;;;;5.07;60.58;101589.13;5123605;27;20076;-91
2021/04/06 01:13:36;;;;;;;17.55;2.13;;;;;;;4.96;60.84;101581.06;5121121;28;20051;-91
2021/04/06 01:16:04;;;;;;;24.60;3.55;;;;;;;5.06;60.58;101582.09;5130876;27;20409;-92
2021/04/06 01:18:31;;;;;;;17.10;2.83;;;;;;;5.05;60.75;101589.09;5130416;28;20039;-88
2021/04/06 01:21:09;;;;;;;17.45;2.78;;;;;;;5.23;60.11;101580.59;5125659;28;20390;-91
2021/04/06 01:23:37;;;;;;;15.40;3.10;;;;;;;4.93;60.15;101587.16;5119635;28;20112;-94
2021/04/06 01:26:09;;;;;;;19.20;2.80;;;;;;;5.23;59.28;101580.59;5120029;28;20031;-89
2021/04/06 01:28:35;;;;;;;18.00;2.97;;;;;;;5.25;58.53;101583.25;5130198;27;20053;-89
2021/04/06 01:31:04;;;;;;;17.30;3.03;;;;;;;5.39;58.58;101584.31;5130635;28;20028;-91
2021/04/06 01:33:33;;;;;;;22.73;3.47;;;;;;;5.48;58.09;101579.19;5130294;28;20028;-91
2021/04/06 01:36:05;;;;;;;20.88;3.28;;;;;;;5.59;58.04;101578.44;5130411;28;20188;-91
2021/04/06 01:38:33;;;;;;;19.27;2.23;;;;;;;5.30;58.65;101568.44;5122636;28;20032;-92
2021/04/06 01:41:02;;;;;;;17.98;2.85;;;;;;;5.26;58.49;101559.63;5123859;27;20498;-89
2021/04/06 01:43:29;;;;;;;13.45;2.60;;;;;;;5.30;57.68;101565.81;5122040;28;20058;-91
2021/04/06 01:45:58;;;;;;;9.35;1.80;;;;;;;5.49;57.44;101549.41;5128460;27;20470;-89
2021/04/06 01:48:29;;;;;;;12.75;2.15;;;;;;;5.41;57.56;101552.78;5119129;28;20032;-90
2021/04/06 01:50:57;;;;;;;13.77;2.05;;;;;;;5.36;57.35;101555.38;5129614;27;20023;-91
2021/04/06 01:53:24;;;;;;;12.77;2.00;;;;;;;5.59;57.08;101560.03;5128444;28;20019;-90
2021/04/06 01:55:57;;;;;;;17.98;2.65;;;;;;;5.57;56.61;101586.31;5129781;27;20043;-91
2021/04/06 01:58:27;;;;;;;12.40;2.35;;;;;;;5.42;58.06;101581.75;5129925;27;20378;-90
2021/04/06 02:01:27;;;;;;;15.10;2.10;;;;;;;5.33;59.37;101568.47;5129264;27;20047;-88
2021/04/06 02:03:50;;;;;;;14.23;2.75;;;;;;;5.30;59.18;101563.19;5129659;27;20039;-89
2021/04/06 02:06:17;;;;;;;15.25;2.08;;;;;;;5.19;59.72;101563.03;5129119;27;20019;-89
2021/04/06 02:08:49;;;;;;;10.65;2.00;;;;;;;5.31;59.80;101557.06;5129434;27;20015;-88
2021/04/06 02:11:20;;;;;;;10.18;2.28;;;;;;;5.12;59.69;101569.94;5127242;27;20024;-88
2021/04/06 02:13:47;;;;;;;19.37;3.30;;;;;;;5.22;59.48;101564.81;5112383;28;20465;-89
2021/04/06 02:16:14;;;;;;;17.38;2.22;;;;;;;5.14;59.06;101555.06;5130026;27;20106;-89
2021/04/06 02:18:40;;;;;;;11.35;1.95;;;;;;;4.95;60.00;101558.31;5122936;27;20121;-90
2021/04/06 02:21:07;;;;;;;13.02;2.05;;;;;;;4.82;60.19;101557.25;5116144;28;20024;-90
2021/04/06 02:23:40;;;;;;;15.27;2.20;;;;;;;4.88;59.50;101556.47;5115671;28;20032;-90
2021/04/06 02:26:08;;;;;;;14.50;1.90;;;;;;;4.93;59.75;101555.66;5115620;28;20062;-90
2021/04/06 02:28:34;;;;;;;11.50;1.55;;;;;;;4.67;59.84;101563.13;5115269;28;20038;-91
2021/04/06 02:31:04;;;;;;;14.50;3.08;;;;;;;4.71;59.62;101554.47;5115301;28;20038;-91
2021/04/06 02:33:33;;;;;;;9.75;2.25;;;;;;;4.65;60.49;101570.13;5115467;28;20045;-91
2021/04/06 02:36:03;;;;;;;11.05;2.17;;;;;;;4.76;59.51;101576.41;5115662;28;20482;-91
2021/04/06 02:38:32;;;;;;;10.80;1.92;;;;;;;4.38;61.43;101605.53;5115378;28;20482;-90
2021/04/06 02:41:04;;;;;;;9.25;2.60;;;;;;;4.26;62.68;101598.34;5104222;28;20028;-89
2021/04/06 02:46:30;;;;;;;9.07;2.38;;;;;;;4.30;63.89;101594.00;5069504;28;20705;-87
2021/04/06 02:49:00;;;;;;;5.15;1.42;;;;;;;4.08;64.82;101593.59;5069145;28;20044;-87
2021/04/06 02:51:27;;;;;;;11.32;1.83;;;;;;;4.08;64.45;101593.59;5080682;22;20009;-84
2021/04/06 02:54:02;;;;;;;14.68;1.50;;;;;;;4.04;64.68;101583.94;5045516;28;20090;-85
2021/04/06 02:56:35;;;;;;;17.35;1.92;;;;;;;4.02;64.71;101569.91;5049247;28;20104;-84
2021/04/06 02:59:22;;;;;;;14.25;2.17;;;;;;;4.15;64.55;101574.50;5047386;28;20021;-83
2021/04/06 03:01:50;;;;;;;11.25;1.77;;;;;;;4.21;63.95;101569.38;5049243;28;20100;-83
2021/04/06 03:04:22;;;;;;;12.15;2.10;;;;;;;4.26;63.56;101569.47;5049273;28;20033;-83
2021/04/06 03:06:51;;;;;;;6.95;1.50;;;;;;;4.25;63.33;101569.41;5049032;28;20368;-83
2021/04/06 03:09:19;;;;;;;9.70;1.40;;;;;;;4.32;62.99;101561.69;5049506;28;20757;-83
2021/04/06 03:11:47;;;;;;;17.65;1.80;;;;;;;4.30;63.37;101576.53;5049178;28;20029;-83
2021/04/06 03:14:15;;;;;;;11.52;1.85;;;;;;;4.12;63.80;101579.69;5049411;28;20029;-83
2021/04/06 03:16:42;;;;;;;10.20;2.13;;;;;;;4.37;62.85;101570.53;5049022;28;20021;-84
2021/04/06 03:19:08;;;;;;;16.05;2.00;;;;;;;4.36;62.93;101579.25;5048941;28;20018;-84
2021/04/06 03:21:36;;;;;;;9.10;2.00;;;;;;;4.41;62.99;101571.47;5049328;28;20035;-83
2021/04/06 03:24:03;;;;;;;14.07;2.03;;;;;;;4.18;63.36;101582.44;5047646;28;20096;-84
2021/04/06 03:26:31;;;;;;;16.50;1.98;;;;;;;4.35;62.49;101576.63;5049161;28;20021;-85
2021/04/06 03:29:00;;;;;;;16.08;2.83;;;;;;;4.31;62.62;101559.94;5048865;28;20033;-85
2021/04/06 03:31:29;;;;;;;18.50;1.83;;;;;;;4.42;62.22;101562.72;5048911;28;20507;-82
2021/04/06 03:33:57;;;;;;;18.55;2.53;;;;;;;4.36;62.63;101557.38;5048794;28;20037;-83
2021/04/06 03:36:29;;;;;;;12.63;2.10;;;;;;;4.34;62.62;101559.09;5049080;28;20033;-83
2021/04/06 03:39:01;;;;;;;13.27;2.20;;;;;;;4.52;61.86;101555.88;5047694;28;20107;-84
2021/04/06 03:41:30;;;;;;;16.83;3.25;;;;;;;4.61;61.54;101563.03;5034608;28;20076;-84
2021/04/06 03:44:05;;;;;;;12.73;2.40;;;;;;;4.56;60.98;101560.34;5048605;28;20029;-85
2021/04/06 03:46:33;;;;;;;8.48;2.53;;;;;;;4.50;61.16;101558.50;5045743;28;20030;-87
2021/04/06 03:49:17;;;;;;;8.65;1.80;;;;;;;4.48;61.01;101557.59;5047490;28;20120;-86
2021/04/06 03:52:07;;;;;;;9.95;2.10;;;;;;;4.62;60.20;101556.94;5039513;28;20040;-85
2021/04/06 03:54:50;;;;;;;10.90;1.63;;;;;;;4.57;59.96;101550.72;5048169;28;20030;-84
2021/04/06 04:00:09;;;;;;;10.73;2.03;;;;;;;4.59;60.08;101544.66;5110450;27;20362;-84
2021/04/06 04:02:36;;;;;;;12.35;2.15;;;;;;;4.69;59.36;101540.44;5103928;28;20048;-86
2021/04/06 04:05:03;;;;;;;6.90;1.50;;;;;;;4.60;59.91;101542.88;5103267;28;20107;-85
2021/04/06 04:07:33;;;;;;;11.30;1.70;;;;;;;4.67;59.96;101547.38;5085338;28;20013;-83
2021/04/06 04:10:00;;;;;;;7.45;1.65;;;;;;;4.74;59.50;101549.25;5082027;28;20435;-82
2021/04/06 04:12:26;;;;;;;9.77;1.35;;;;;;;4.78;59.32;101547.56;5092348;28;20108;-82
2021/04/06 04:14:55;;;;;;;7.97;1.40;;;;;;;4.73;59.67;101547.47;5097400;28;20074;-84
2021/04/06 04:17:21;;;;;;;12.35;2.63;;;;;;;4.77;59.40;101551.94;5103864;28;20028;-84
2021/04/06 04:19:48;;;;;;;9.10;1.42;;;;;;;4.85;59.70;101557.31;5081847;28;20028;-85
2021/04/06 04:22:14;;;;;;;11.77;1.63;;;;;;;4.92;59.42;101553.00;5073652;23;20046;-85
2021/04/06 04:24:40;;;;;;;6.43;1.23;;;;;;;4.60;61.09;101570.03;5028209;28;20109;-87
2021/04/06 04:27:07;;;;;;;8.27;1.88;;;;;;;4.77;60.70;101554.56;5029611;28;20029;-88
2021/04/06 04:29:33;;;;;;;4.88;1.30;;;;;;;4.93;59.96;101567.91;5029490;28;20071;-85
2021/04/06 04:32:02;;;;;;;7.22;1.45;;;;;;;4.89;60.65;101559.09;5029466;28;20026;-86
2021/04/06 04:34:28;;;;;;;6.65;1.50;;;;;;;4.81;60.58;101558.09;5029293;28;20124;-86
2021/04/06 04:36:55;;;;;;;4.93;1.40;;;;;;;4.86;60.72;101566.94;5029215;28;20536;-86
2021/04/06 04:39:21;;;;;;;7.63;1.27;;;;;;;4.82;60.89;101579.16;5028942;28;20465;-85
2021/04/06 04:41:51;;;;;;;6.88;0.90;;;;;;;4.71;61.92;101596.47;5028968;28;20026;-85
2021/04/06 04:44:18;;;;;;;7.38;1.40;;;;;;;4.09;64.73;101602.34;5024659;28;20025;-85
2021/04/06 04:46:45;;;;;;;11.05;1.33;;;;;;;4.33;63.87;101618.53;5028839;28;20037;-85
2021/04/06 04:49:11;;;;;;;7.32;2.08;;;;;;;4.07;65.02;101583.97;5028991;28;20061;-85
2021/04/06 04:51:38;;;;;;;9.10;2.08;;;;;;;4.15;64.53;101576.25;5030792;28;20149;-84
2021/04/06 04:54:04;;;;;;;7.97;2.35;;;;;;;4.10;64.92;101565.69;5028638;28;20033;-84
2021/04/06 04:56:31;;;;;;;13.55;1.75;;;;;;;4.10;64.90;101555.19;5028502;28;20057;-84
2021/04/06 04:58:57;;;;;;;17.98;2.20;;;;;;;4.18;64.35;101560.56;5028345;28;20038;-84
2021/04/06 05:01:23;;;;;;;8.45;1.48;;;;;;;4.03;64.90;101558.56;5030390;28;20029;-83
2021/04/06 05:03:50;;;;;;;6.75;1.48;;;;;;;4.08;64.43;101559.53;5028663;28;20021;-84
2021/04/06 05:06:16;;;;;;;4.65;1.38;;;;;;;4.13;64.35;101550.00;5028224;28;20017;-84
2021/04/06 05:08:42;;;;;;;8.23;1.55;;;;;;;4.20;63.73;101544.00;5028613;28;20160;-83
2021/04/06 05:11:09;;;;;;;12.38;1.92;;;;;;;4.23;63.80;101558.03;5026442;28;20501;-83
2021/04/06 05:13:36;;;;;;;7.30;1.83;;;;;;;4.12;64.15;101552.59;5015237;28;20033;-84
2021/04/06 05:16:02;;;;;;;11.95;2.00;;;;;;;4.12;63.86;101552.59;5014730;28;20030;-85
2021/04/06 05:18:29;;;;;;;9.55;1.70;;;;;;;4.12;63.46;101547.34;5014576;28;20469;-84
2021/04/06 05:20:55;;;;;;;13.05;1.50;;;;;;;4.16;63.49;101555.31;5015036;28;20109;-85
2021/04/06 05:23:21;;;;;;;11.85;2.05;;;;;;;4.08;63.60;101549.03;5014507;28;20050;-83
2021/04/06 05:25:47;;;;;;;8.45;1.52;;;;;;;4.17;63.31;101551.81;5011450;28;20046;-84
2021/04/06 05:28:14;;;;;;;6.50;1.30;;;;;;;4.25;63.11;101532.69;5004426;28;20025;-83
2021/04/06 05:30:40;;;;;;;5.80;1.33;;;;;;;4.15;63.41;101553.53;5015279;28;20088;-84
2021/04/06 05:33:07;;;;;;;9.82;1.88;;;;;;;4.16;64.04;101560.56;5017500;28;20700;-85
2021/04/06 05:35:33;;;;;;;9.70;1.80;;;;;;;4.18;63.65;101579.81;5021383;28;20089;-85
2021/04/06 05:37:59;;;;;;;6.10;1.65;;;;;;;4.23;63.82;101573.78;5019005;28;20511;-84
2021/04/06 05:40:26;;;;;;;7.10;1.95;;;;;;;4.24;63.90;101567.66;5016721;28;20058;-83
2021/04/06 05:42:52;;;;;;;13.57;1.90;;;;;;;4.31;63.91;101557.31;5012061;28;20117;-84
2021/04/06 05:45:19;;;;;;;10.63;1.88;;;;;;;4.37;63.77;101577.50;5011439;28;20440;-84
2021/04/06 05:47:51;;;;;;;13.05;2.00;;;;;;;4.48;63.36;101586.44;5012715;28;20390;-84
2021/04/06 05:50:18;;;;;;;3.95;0.80;;;;;;;4.08;64.63;101604.09;5012665;28;20116;-86
2021/04/06 05:52:44;;;;;;;8.10;1.35;;;;;;;4.29;63.85;101582.63;5011967;28;20110;-84
2021/04/06 05:55:11;;;;;;;10.07;1.55;;;;;;;4.36;64.11;101583.59;5013309;28;20042;-83
2021/04/06 05:57:38;;;;;;;11.20;1.50;;;;;;;4.33;64.02;101565.19;5015447;28;20034;-85
2021/04/06 06:00:08;;;;;;;6.78;1.23;;;;;;;4.36;63.94;101560.91;5014378;28;20079;-85
2021/04/06 06:02:36;;;;;;;15.60;2.03;;;;;;;4.32;64.23;101560.81;5017852;28;20025;-85
2021/04/06 06:05:03;;;;;;;10.40;2.53;;;;;;;4.23;64.12;101558.03;5014616;28;20065;-85
2021/04/06 06:07:33;;;;;;;7.20;1.50;;;;;;;4.35;64.07;101550.38;5014849;28;20603;-91
2021/04/06 06:10:28;;;;;;;8.88;1.58;;;;;;;4.35;63.65;101551.25;5013764;28;20044;-85
2021/04/06 06:13:13;;;;;;;9.05;1.38;;;;;;;4.26;64.08;101544.97;5001985;28;20042;-85
2021/04/06 06:15:39;;;;;;;8.13;1.13;;;;;;;4.29;63.62;101534.53;5004033;28;20026;-85
2021/04/06 06:18:06;;;;;;;7.68;2.20;;;;;;;4.25;63.68;101538.84;5013646;28;20022;-84
2021/04/06 06:20:33;;;;;;;6.50;1.05;;;;;;;4.26;63.76;101535.38;5013765;28;20084;-84
2021/04/06 06:23:20;;;;;;;7.43;2.42;;;;;;;4.40;63.82;101537.31;5010354;28;20077;-83
2021/04/06 06:31:50;;;;;;;9.45;1.92;;;;;;;4.62;62.92;101533.31;5150070;27;20707;-85
2021/04/06 06:34:34;;;;;;;11.52;2.10;;;;;;;4.67;62.71;101536.88;5141131;27;20024;-85
2021/04/06 06:39:55;;;;;;;10.68;1.90;;;;;;;4.84;61.77;101545.91;5063727;27;20441;-85
2021/04/06 06:42:23;;;;;;;7.45;1.75;;;;;;;4.82;61.71;101542.38;5046245;28;20067;-85
2021/04/06 06:44:49;;;;;;;7.35;1.52;;;;;;;4.79;60.77;101547.56;5034803;28;20033;-85
2021/04/06 06:47:25;;;;;;;13.43;2.05;;;;;;;4.82;61.03;101546.72;5031724;28;20053;-85
2021/04/06 06:49:54;;;;;;;12.68;2.13;;;;;;;4.76;61.39;101544.91;5040944;28;20033;-84
2021/04/06 06:55:20;;;;;;;11.55;2.38;;;;;;;4.84;60.68;101545.03;5087143;27;20431;-84
2021/04/06 06:57:47;;;;;;;8.30;1.58;;;;;;;4.96;60.50;101545.22;5068841;28;20021;-84
2021/04/06 07:00:19;;;;;;;14.98;1.90;;;;;;;5.02;60.25;101536.50;5064387;28;20036;-84
2021/04/06 07:02:46;;;;;;;12.85;1.70;;;;;;;5.04;60.82;101539.19;5065551;28;20022;-85
2021/04/06 07:07:58;;;;;;;11.27;1.90;;;;;;;5.22;60.17;101535.91;5061129;27;20421;-83
2021/04/06 07:10:29;;;;;;;7.55;1.85;;;;;;;5.40;60.08;101530.91;5052638;28;20039;-84
2021/04/06 07:15:51;;;;;;;12.70;2.47;;;;;;;5.59;59.21;101546.91;5059214;28;20414;-84
2021/04/06 07:18:21;;;;;;;16.48;2.33;;;;;;;5.67;59.12;101529.47;5055995;28;20390;-83
2021/04/06 07:21:00;;;;;;;10.82;1.75;;;;;;;5.56;58.83;101531.97;5053423;28;20036;-84
2021/04/06 07:24:06;;;;;;;9.30;1.67;;;;;;;5.61;58.82;101527.66;5044754;28;20033;-84
2021/04/06 07:26:33;;;;;;;11.57;1.83;;;;;;;5.48;58.50;101529.25;5046063;28;20029;-83
2021/04/06 07:29:00;;;;;;;4.20;1.02;;;;;;;5.27;58.72;101529.88;5046620;28;20062;-84
2021/04/06 07:31:27;;;;;;;7.78;2.28;;;;;;;5.35;57.64;101528.19;5054241;28;20037;-84
2021/04/06 07:33:53;;;;;;;9.57;2.03;;;;;;;5.30;57.63;101529.03;5052299;28;20022;-84
2021/04/06 07:36:22;;;;;;;10.80;2.20;;;;;;;5.43;56.72;101514.28;5054164;28;20034;-84
2021/04/06 07:38:57;;;;;;;10.70;1.85;;;;;;;5.31;56.03;101522.91;5053330;28;20094;-83
2021/04/06 07:41:27;;;;;;;8.43;1.83;;;;;;;5.43;55.05;101520.44;5050315;28;20033;-83
2021/04/06 07:43:56;;;;;;;11.77;1.67;;;;;;;5.63;54.77;101511.88;5055967;28;20025;-85
2021/04/06 07:52:00;;;;;;;10.43;1.50;;;;;;;6.09;53.24;101511.50;5066733;27;20406;-82
2021/04/06 07:57:17;;;;;;;10.30;1.77;;;;;;;6.07;53.69;101503.59;5097308;27;20355;-83
2021/04/06 07:59:49;;;;;;;8.73;1.30;;;;;;;6.21;53.07;101508.13;5088120;28;20051;-83
2021/04/06 08:04:57;;;;;;;9.15;2.05;;;;;;;6.27;52.28;101505.53;5079898;27;20956;-83
2021/04/06 08:07:33;;;;;;;12.45;2.05;;;;;;;6.62;51.03;101520.72;5049611;28;20598;-84
2021/04/06 08:13:03;;;;;;;8.50;1.10;;;;;;;6.20;53.33;101545.81;5050513;27;20374;-85
2021/04/06 08:15:32;;;;;;;8.23;1.65;;;;;;;6.04;54.90;101548.28;5045453;28;20404;-86
2021/04/06 08:17:59;;;;;;;8.13;1.50;;;;;;;5.34;57.51;101550.09;5046703;28;20095;-85
2021/04/06 08:23:11;;;;;;;8.98;1.42;;;;;;;4.83;60.24;101552.00;5039658;27;804974;-86
2021/04/06 08:25:42;;;;;;;6.80;1.35;;;;;;;4.53;61.17;101553.28;5063040;28;20115;-83
2021/04/06 08:28:31;;;;;;;2.22;1.15;;;;;;;4.63;59.80;101566.56;5065754;28;20048;-83
2021/04/06 08:31:18;;;;;;;4.85;1.10;;;;;;;4.65;60.18;101543.88;5041374;28;20060;-84
2021/04/06 08:33:44;;;;;;;4.57;0.90;;;;;;;4.74;59.61;101543.13;5048419;28;20032;-83
2021/04/06 08:36:19;;;;;;;2.17;0.90;;;;;;;4.88;59.23;101551.22;5051217;28;20033;-83
2021/04/06 08:38:46;;;;;;;3.08;1.33;;;;;;;4.85;58.96;101547.66;5056827;28;20052;-83
2021/04/06 08:41:31;;;;;;;3.42;0.70;;;;;;;4.78;58.82;101556.31;5049724;28;20025;-83
2021/04/06 08:43:59;;;;;;;2.67;0.73;;;;;;;4.81;58.49;101545.88;5051215;28;20110;-83
2021/04/06 08:52:01;;;;;;;7.75;1.77;;;;;;;5.22;57.54;101533.28;5087452;22;20453;-95
2021/04/06 08:54:34;;;;;;;7.68;1.63;;;;;;;5.36;57.68;101523.84;5065239;28;20028;-94
2021/04/06 08:57:04;;;;;;;10.30;1.58;;;;;;;5.52;57.29;101514.41;5064760;28;20029;-93
2021/04/06 08:59:34;;;;;;;10.57;1.10;;;;;;;5.63;57.55;101520.66;5066236;28;20025;-94
2021/04/06 09:04:55;;;;;;;3.15;1.15;;;;;;;6.20;57.04;101499.31;5087583;27;20495;-95
2021/04/06 09:07:35;;;;;;;8.13;1.42;;;;;;;6.67;57.02;101497.03;5069446;28;20033;-96
2021/04/06 09:10:07;;;;;;;8.43;1.67;;;;;;;6.76;56.08;101497.97;5050400;28;20035;-96
2021/04/06 09:12:48;;;;;;;6.50;1.60;;;;;;;6.84;55.09;101497.16;5054634;28;20389;-93
2021/04/06 09:16:19;;;;;;;10.90;1.33;;;;;;;6.62;54.81;101518.09;5042032;28;20175;-93
2021/04/06 09:18:52;;;;;;;13.65;1.95;;;;;;;5.94;57.95;101525.34;4948897;28;20047;-92
2021/04/06 09:21:49;;;;;;;8.32;1.40;;;;;;;6.04;57.35;101532.50;5037825;28;20073;-92
2021/04/06 09:24:23;;;;;;;8.25;1.58;;;;;;;6.00;57.85;101533.34;5029369;28;20049;-91
2021/04/06 09:26:52;;;;;;;13.85;2.08;;;;;;;5.60;59.06;101519.75;5045286;28;20029;-87
2021/04/06 09:39:42;;;;;;;4.97;1.33;;;;;;;5.83;60.58;101535.75;5269038;22;20237;-85
2021/04/06 09:42:09;;;;;;;4.90;1.45;;;;;;;5.88;60.68;101534.09;5015003;28;20034;-81
2021/04/06 09:44:38;;;;;;;2.85;0.68;;;;;;;6.35;60.36;101529.28;5008431;28;20034;-87
2021/04/06 09:47:22;;;;;;;8.40;1.10;;;;;;;6.14;61.52;101531.75;5008608;28;20104;-87
2021/04/06 09:49:51;;;;;;;3.20;0.93;;;;;;;6.33;60.37;101524.03;5008710;28;20034;-86
2021/04/06 09:52:22;;;;;;;2.08;0.90;;;;;;;6.59;59.39;101518.06;5008573;28;20057;-87
2021/04/06 09:54:54;;;;;;;5.95;0.82;;;;;;;6.71;59.35;101512.00;5008797;28;20034;-88
2021/04/06 09:57:22;;;;;;;2.93;0.70;;;;;;;6.83;58.49;101498.91;5009288;28;20030;-87
2021/04/06 09:59:53;;;;;;;4.75;0.82;;;;;;;7.05;56.97;101507.84;5009012;28;20073;-89
2021/04/06 10:02:22;;;;;;;6.32;1.15;;;;;;;7.29;56.97;101501.78;4998247;28;20030;-87
2021/04/06 10:04:51;;;;;;;6.15;1.40;;;;;;;7.11;57.28;101521.00;4990977;28;20114;-87
2021/04/06 10:12:43;;;;;;;7.82;1.63;;;;;;;6.54;58.02;101538.19;5058228;27;20411;-84
2021/04/06 10:15:09;;;;;;;7.45;1.55;;;;;;;6.31;58.51;101533.63;5048732;28;20111;-84
2021/04/06 10:17:40;;;;;;;10.30;2.63;;;;;;;6.03;59.38;101520.25;5048477;28;20064;-84
2021/04/06 10:20:12;;;;;;;8.25;1.20;;;;;;;5.94;59.57;101517.47;5047842;28;20247;-89
2021/04/06 10:22:46;;;;;;;10.20;1.27;;;;;;;5.60;59.91;101518.00;5066881;22;20037;-84
2021/04/06 10:25:23;;;;;;;9.73;1.73;;;;;;;5.62;59.90;101518.00;5064829;28;20514;-81
2021/04/06 10:33:19;;;;;;;9.00;1.45;;;;;;;5.62;59.63;101497.88;5020887;27;1353126;-83
2021/04/06 10:35:48;;;;;;;4.97;1.60;;;;;;;5.86;59.67;101487.56;5065425;28;20476;-83
2021/04/06 10:38:21;;;;;;;11.52;1.65;;;;;;;6.07;59.25;101490.44;5066189;28;20116;-84
2021/04/06 10:41:01;;;;;;;9.85;1.40;;;;;;;6.32;58.49;101481.00;5061761;28;20025;-83
2021/04/06 10:43:27;;;;;;;4.15;1.50;;;;;;;6.74;57.68;101475.13;5051177;28;20510;-83
2021/04/06 10:46:11;;;;;;;11.70;1.77;;;;;;;6.89;57.44;101463.81;5055145;28;20037;-84
2021/04/06 10:48:44;;;;;;;20.38;3.42;;;;;;;6.93;57.11;101449.81;5057467;28;20052;-84
2021/04/06 10:54:01;;;;;;;8.85;1.88;;;;;;;7.63;56.57;101453.53;5064574;28;20220;-83
2021/04/06 10:56:39;;;;;;;7.13;1.30;;;;;;;7.64;54.45;101451.78;5066115;28;20375;-84
2021/04/06 10:59:08;;;;;;;5.88;1.10;;;;;;;7.19;53.40;101500.00;5068774;28;20040;-86
2021/04/06 11:04:25;;;;;;;7.28;1.67;;;;;;;6.75;59.21;101495.34;5059896;28;20449;-83
2021/04/06 11:09:40;;;;;;;3.38;0.85;;;;;;;5.98;61.69;101492.94;5037777;28;20426;-83
2021/04/06 11:12:09;;;;;;;2.05;0.90;;;;;;;6.14;61.93;101497.53;5020472;28;20097;-82
2021/04/06 11:14:36;;;;;;;6.13;1.25;;;;;;;6.28;61.67;101491.50;5008193;28;20121;-84
2021/04/06 11:17:06;;;;;;;2.47;0.65;;;;;;;6.46;61.46;101478.47;5008056;28;20034;-84
2021/04/06 11:19:38;;;;;;;4.13;0.80;;;;;;;6.43;61.09;101483.72;5008263;28;20030;-85
2021/04/06 11:22:08;;;;;;;5.82;0.90;;;;;;;6.59;60.69;101476.81;5006930;28;20030;-85
2021/04/06 11:24:35;;;;;;;10.88;3.70;;;;;;;6.24;62.24;101473.91;5007954;28;20429;-84
2021/04/06 11:27:04;;;;;;;6.90;2.10;;;;;;;6.54;60.96;101472.38;5008217;28;20592;-82
2021/04/06 11:29:33;;;;;;;7.00;2.03;;;;;;;6.60;60.87;101461.91;5008251;28;20049;-85
2021/04/06 11:32:03;;;;;;;6.50;1.38;;;;;;;6.68;60.21;101462.84;5006603;28;20101;-86
2021/04/06 11:34:31;;;;;;;7.03;1.83;;;;;;;6.92;59.66;101453.31;5007480;28;20493;-85
2021/04/06 11:36:57;;;;;;;10.55;1.75;;;;;;;6.63;60.09;101454.03;5008785;28;20112;-83
2021/04/06 11:39:28;;;;;;;5.72;1.10;;;;;;;6.82;59.50;101451.47;5008216;28;20116;-85
2021/04/06 11:41:56;;;;;;;9.07;2.28;;;;;;;6.88;59.53;101446.25;5006523;28;20512;-85
2021/04/06 11:44:22;;;;;;;7.47;1.50;;;;;;;6.91;59.04;101441.88;5016210;28;20037;-92
2021/04/06 11:46:49;;;;;;;9.13;2.10;;;;;;;6.76;58.55;101447.06;5001411;28;20157;-91
2021/04/06 11:49:17;;;;;;;8.98;1.77;;;;;;;6.76;58.35;101445.31;5008264;28;20062;-92
2021/04/06 11:51:45;;;;;;;7.28;2.67;;;;;;;6.35;59.09;101461.72;5009222;28;20025;-90
2021/04/06 11:54:15;;;;;;;12.48;1.85;;;;;;;6.11;59.48;101450.13;5005111;28;20477;-89
2021/04/06 11:56:41;;;;;;;8.90;3.08;;;;;;;5.90;59.55;101445.53;5007546;28;20030;-88
2021/04/06 11:59:07;;;;;;;7.40;1.40;;;;;;;6.18;59.76;101456.34;5007851;28;20081;-87
2021/04/06 12:01:34;;;;;;;5.88;1.20;;;;;;;6.00;58.37;101454.44;5005610;28;20041;-89
2021/04/06 12:04:01;;;;;;;8.07;1.30;;;;;;;5.97;58.66;101450.00;5008349;28;20043;-86
2021/04/06 12:06:28;;;;;;;8.55;1.83;;;;;;;6.05;58.58;101452.72;5006878;28;20477;-85
2021/04/06 12:08:55;;;;;;;12.52;1.58;;;;;;;6.19;58.95;101444.06;5022151;28;20076;-87
2021/04/06 12:11:21;;;;;;;2.72;1.00;;;;;;;6.06;57.92;101443.97;5028527;28;20037;-86
2021/04/06 12:13:48;;;;;;;4.20;0.90;;;;;;;6.34;56.85;101430.13;5023760;28;20037;-85
2021/04/06 12:16:15;;;;;;;3.72;0.77;;;;;;;6.32;55.89;101436.25;5024959;28;20118;-83
2021/04/06 12:18:41;;;;;;;5.13;1.17;;;;;;;6.58;55.11;101427.66;5029870;28;20109;-87
2021/04/06 12:21:08;;;;;;;5.25;1.27;;;;;;;6.97;55.21;101430.50;5014032;28;20049;-85
2021/04/06 12:23:36;;;;;;;1.65;0.85;;;;;;;7.33;55.14;101412.16;5013705;28;20068;-85
2021/04/06 12:26:02;;;;;;;3.53;1.13;;;;;;;7.79;54.89;101404.34;5014889;28;20076;-87
2021/04/06 12:28:29;;;;;;;5.53;1.33;;;;;;;7.99;52.75;101406.97;5018232;28;20041;-86
2021/04/06 12:30:55;;;;;;;6.35;0.80;;;;;;;8.06;52.14;101390.25;5014085;28;20030;-87
2021/04/06 12:33:21;;;;;;;9.52;1.55;;;;;;;7.91;52.16;101396.44;5014641;28;20366;-87
2021/04/06 12:35:48;;;;;;;4.72;1.05;;;;;;;7.65;51.51;101424.53;5004290;28;20034;-87
2021/04/06 12:38:14;;;;;;;7.93;1.52;;;;;;;7.38;52.57;101431.53;5013979;28;20053;-87
2021/04/06 12:40:40;;;;;;;6.90;1.05;;;;;;;6.93;53.64;101440.13;5013567;28;20418;-85
2021/04/06 12:43:06;;;;;;;7.13;1.10;;;;;;;6.74;55.27;101439.16;5014264;28;20384;-86
2021/04/06 12:45:33;;;;;;;8.82;1.30;;;;;;;6.44;55.80;101443.38;5014266;28;20022;-88
2021/04/06 12:47:59;;;;;;;5.97;1.08;;;;;;;6.54;55.96;101439.06;5014113;28;20065;-88
2021/04/06 12:50:26;;;;;;;3.72;0.90;;;;;;;6.56;56.00;101449.59;5013949;28;20034;-87
2021/04/06 12:52:53;;;;;;;7.93;1.20;;;;;;;6.26;55.92;101433.59;5013208;28;20130;-85
2021/04/06 12:55:19;;;;;;;7.25;1.30;;;;;;;6.31;55.80;101446.78;5014717;28;20029;-87
2021/04/06 12:57:48;;;;;;;11.00;1.83;;;;;;;6.37;56.57;101433.66;5014507;28;20045;-85
2021/04/06 13:00:15;;;;;;;5.05;1.10;;;;;;;6.17;56.76;101440.53;5014324;28;20101;-84
2021/04/06 13:02:41;;;;;;;6.63;1.10;;;;;;;6.26;56.76;101433.59;5014234;28;20477;-85
2021/04/06 13:05:08;;;;;;;9.77;1.23;;;;;;;5.94;58.06;101439.47;5014407;28;20096;-85